sensor_id;sensor_type;location;lat;lon;timestamp;P1;durP1;ratioP1;P2;durP2;ratioP2
53052;SDS011;38934;52.690;6.184;2023-12-22T00:01:39;17.55;;;4.20;;
53052;SDS011;38934;52.690;6.184;2023-12-22T00:04:04;15.85;;;3.13;;
53052;SDS011;38934;52.690;6.184;2023-12-22T00:06:31;23.05;;;4.22;;
53052;SDS011;38934;52.690;6.184;2023-12-22T00:08:57;16.33;;;3.35;;
53052;SDS011;38934;52.690;6.184;2023-12-22T00:11:23;17.67;;;4.00;;
53052;SDS011;38934;52.690;6.184;2023-12-22T00:13:48;11.95;;;2.92;;
53052;SDS011;38934;52.690;6.184;2023-12-22T00:16:14;15.25;;;3.00;;
53052;SDS011;38934;52.690;6.184;2023-12-22T00:18:40;13.95;;;3.92;;
53052;SDS011;38934;52.690;6.184;2023-12-22T00:21:09;15.70;;;3.35;;
53052;SDS011;38934;52.690;6.184;2023-12-22T00:23:37;16.08;;;3.13;;
53052;SDS011;38934;52.690;6.184;2023-12-22T00:26:03;14.10;;;3.33;;
53052;SDS011;38934;52.690;6.184;2023-12-22T00:28:30;17.85;;;3.05;;
53052;SDS011;38934;52.690;6.184;2023-12-22T00:30:58;20.60;;;3.35;;
53052;SDS011;38934;52.690;6.184;2023-12-22T00:33:24;16.27;;;3.90;;
53052;SDS011;38934;52.690;6.184;2023-12-22T00:35:50;15.38;;;3.22;;
53052;SDS011;38934;52.690;6.184;2023-12-22T00:38:16;17.23;;;3.83;;
53052;SDS011;38934;52.690;6.184;2023-12-22T00:40:42;13.95;;;3.15;;
53052;SDS011;38934;52.690;6.184;2023-12-22T00:43:08;17.35;;;4.25;;
53052;SDS011;38934;52.690;6.184;2023-12-22T00:45:33;14.98;;;3.30;;
53052;SDS011;38934;52.690;6.184;2023-12-22T00:47:59;22.77;;;3.35;;
53052;SDS011;38934;52.690;6.184;2023-12-22T00:50:24;16.08;;;4.05;;
53052;SDS011;38934;52.690;6.184;2023-12-22T00:52:50;16.42;;;3.63;;
53052;SDS011;38934;52.690;6.184;2023-12-22T00:55:15;15.48;;;3.38;;
53052;SDS011;38934;52.690;6.184;2023-12-22T00:57:41;18.75;;;3.15;;
53052;SDS011;38934;52.690;6.184;2023-12-22T01:00:07;11.38;;;2.83;;
53052;SDS011;38934;52.690;6.184;2023-12-22T01:02:37;14.57;;;3.10;;
53052;SDS011;38934;52.690;6.184;2023-12-22T01:05:03;20.13;;;3.65;;
53052;SDS011;38934;52.690;6.184;2023-12-22T01:07:29;17.23;;;3.42;;
53052;SDS011;38934;52.690;6.184;2023-12-22T01:09:55;12.40;;;3.08;;
53052;SDS011;38934;52.690;6.184;2023-12-22T01:12:21;16.20;;;3.45;;
53052;SDS011;38934;52.690;6.184;2023-12-22T01:14:46;15.18;;;3.28;;
53052;SDS011;38934;52.690;6.184;2023-12-22T01:17:14;20.13;;;3.63;;
53052;SDS011;38934;52.690;6.184;2023-12-22T01:19:40;18.27;;;4.22;;
53052;SDS011;38934;52.690;6.184;2023-12-22T01:22:06;14.95;;;3.42;;
53052;SDS011;38934;52.690;6.184;2023-12-22T01:24:32;17.83;;;3.17;;
53052;SDS011;38934;52.690;6.184;2023-12-22T01:26:58;14.30;;;2.90;;
53052;SDS011;38934;52.690;6.184;2023-12-22T01:29:33;17.25;;;3.05;;
53052;SDS011;38934;52.690;6.184;2023-12-22T01:32:02;11.38;;;2.53;;
53052;SDS011;38934;52.690;6.184;2023-12-22T01:34:27;17.33;;;3.00;;
53052;SDS011;38934;52.690;6.184;2023-12-22T01:36:53;10.75;;;2.85;;
53052;SDS011;38934;52.690;6.184;2023-12-22T01:39:19;12.15;;;2.58;;
53052;SDS011;38934;52.690;6.184;2023-12-22T01:41:44;18.30;;;3.20;;
53052;SDS011;38934;52.690;6.184;2023-12-22T01:44:10;17.38;;;3.08;;
53052;SDS011;38934;52.690;6.184;2023-12-22T01:46:36;25.75;;;3.92;;
53052;SDS011;38934;52.690;6.184;2023-12-22T01:49:02;21.25;;;4.50;;
53052;SDS011;38934;52.690;6.184;2023-12-22T01:51:32;16.20;;;3.22;;
53052;SDS011;38934;52.690;6.184;2023-12-22T01:53:59;17.20;;;4.03;;
53052;SDS011;38934;52.690;6.184;2023-12-22T01:56:25;17.27;;;3.13;;
53052;SDS011;38934;52.690;6.184;2023-12-22T01:58:55;21.33;;;4.32;;
53052;SDS011;38934;52.690;6.184;2023-12-22T02:03:51;17.42;;;4.68;;
53052;SDS011;38934;52.690;6.184;2023-12-22T02:06:17;19.88;;;4.00;;
53052;SDS011;38934;52.690;6.184;2023-12-22T02:08:45;22.35;;;5.55;;
53052;SDS011;38934;52.690;6.184;2023-12-22T02:11:12;19.85;;;5.07;;
53052;SDS011;38934;52.690;6.184;2023-12-22T02:13:42;26.27;;;4.65;;
53052;SDS011;38934;52.690;6.184;2023-12-22T02:16:11;19.50;;;4.18;;
53052;SDS011;38934;52.690;6.184;2023-12-22T02:19:04;21.98;;;4.82;;
53052;SDS011;38934;52.690;6.184;2023-12-22T02:22:02;14.93;;;3.70;;
53052;SDS011;38934;52.690;6.184;2023-12-22T02:24:29;16.70;;;3.40;;
53052;SDS011;38934;52.690;6.184;2023-12-22T02:27:45;7.72;;;2.30;;
53052;SDS011;38934;52.690;6.184;2023-12-22T02:29:56;7.88;;;1.70;;
53052;SDS011;38934;52.690;6.184;2023-12-22T02:32:30;3.30;;;1.30;;
53052;SDS011;38934;52.690;6.184;2023-12-22T02:34:59;4.90;;;1.27;;
53052;SDS011;38934;52.690;6.184;2023-12-22T02:37:29;12.48;;;2.10;;
53052;SDS011;38934;52.690;6.184;2023-12-22T02:39:56;6.28;;;1.75;;
53052;SDS011;38934;52.690;6.184;2023-12-22T02:42:22;5.50;;;1.70;;
53052;SDS011;38934;52.690;6.184;2023-12-22T02:44:54;3.80;;;1.60;;
53052;SDS011;38934;52.690;6.184;2023-12-22T02:47:21;5.13;;;1.60;;
53052;SDS011;38934;52.690;6.184;2023-12-22T02:49:47;6.07;;;1.55;;
53052;SDS011;38934;52.690;6.184;2023-12-22T02:52:12;7.32;;;1.80;;
53052;SDS011;38934;52.690;6.184;2023-12-22T02:54:38;5.80;;;1.90;;
53052;SDS011;38934;52.690;6.184;2023-12-22T02:57:05;11.55;;;2.97;;
53052;SDS011;38934;52.690;6.184;2023-12-22T02:59:33;11.55;;;2.88;;
53052;SDS011;38934;52.690;6.184;2023-12-22T03:01:59;8.10;;;2.60;;
53052;SDS011;38934;52.690;6.184;2023-12-22T03:04:25;13.27;;;2.60;;
53052;SDS011;38934;52.690;6.184;2023-12-22T03:06:51;9.43;;;2.03;;
53052;SDS011;38934;52.690;6.184;2023-12-22T03:09:16;12.13;;;2.22;;
53052;SDS011;38934;52.690;6.184;2023-12-22T03:11:42;11.48;;;2.42;;
53052;SDS011;38934;52.690;6.184;2023-12-22T03:14:08;13.38;;;2.67;;
53052;SDS011;38934;52.690;6.184;2023-12-22T03:16:35;14.80;;;3.17;;
53052;SDS011;38934;52.690;6.184;2023-12-22T03:19:00;14.32;;;2.97;;
53052;SDS011;38934;52.690;6.184;2023-12-22T03:21:26;9.00;;;2.42;;
53052;SDS011;38934;52.690;6.184;2023-12-22T03:23:51;11.07;;;2.55;;
53052;SDS011;38934;52.690;6.184;2023-12-22T03:26:17;8.25;;;2.20;;
53052;SDS011;38934;52.690;6.184;2023-12-22T03:28:43;6.43;;;2.05;;
53052;SDS011;38934;52.690;6.184;2023-12-22T03:31:08;6.18;;;1.70;;
53052;SDS011;38934;52.690;6.184;2023-12-22T03:33:34;7.80;;;2.00;;
53052;SDS011;38934;52.690;6.184;2023-12-22T03:35:59;12.10;;;2.28;;
53052;SDS011;38934;52.690;6.184;2023-12-22T03:38:25;10.02;;;2.17;;
53052;SDS011;38934;52.690;6.184;2023-12-22T03:40:50;10.15;;;2.60;;
53052;SDS011;38934;52.690;6.184;2023-12-22T03:43:16;13.60;;;2.45;;
53052;SDS011;38934;52.690;6.184;2023-12-22T03:45:42;11.95;;;2.70;;
53052;SDS011;38934;52.690;6.184;2023-12-22T03:48:07;11.85;;;2.53;;
53052;SDS011;38934;52.690;6.184;2023-12-22T03:50:33;15.80;;;2.60;;
53052;SDS011;38934;52.690;6.184;2023-12-22T03:52:58;14.85;;;2.85;;
53052;SDS011;38934;52.690;6.184;2023-12-22T03:55:24;9.82;;;2.38;;
53052;SDS011;38934;52.690;6.184;2023-12-22T03:57:49;15.25;;;2.85;;
53052;SDS011;38934;52.690;6.184;2023-12-22T04:00:15;13.48;;;3.00;;
53052;SDS011;38934;52.690;6.184;2023-12-22T04:02:41;17.27;;;3.08;;
53052;SDS011;38934;52.690;6.184;2023-12-22T04:05:07;25.20;;;3.53;;
53052;SDS011;38934;52.690;6.184;2023-12-22T04:07:32;15.00;;;2.83;;
53052;SDS011;38934;52.690;6.184;2023-12-22T04:09:58;16.65;;;3.70;;
53052;SDS011;38934;52.690;6.184;2023-12-22T04:12:24;17.88;;;4.85;;
53052;SDS011;38934;52.690;6.184;2023-12-22T04:14:49;20.00;;;3.45;;
53052;SDS011;38934;52.690;6.184;2023-12-22T04:17:16;16.50;;;3.75;;
53052;SDS011;38934;52.690;6.184;2023-12-22T04:19:42;21.23;;;4.10;;
53052;SDS011;38934;52.690;6.184;2023-12-22T04:22:07;15.85;;;3.17;;
53052;SDS011;38934;52.690;6.184;2023-12-22T04:24:33;16.20;;;4.03;;
53052;SDS011;38934;52.690;6.184;2023-12-22T04:26:58;18.58;;;3.63;;
53052;SDS011;38934;52.690;6.184;2023-12-22T04:29:24;17.90;;;4.43;;
53052;SDS011;38934;52.690;6.184;2023-12-22T04:31:49;20.13;;;3.58;;
53052;SDS011;38934;52.690;6.184;2023-12-22T04:34:15;18.88;;;3.58;;
53052;SDS011;38934;52.690;6.184;2023-12-22T04:36:41;16.95;;;3.28;;
53052;SDS011;38934;52.690;6.184;2023-12-22T04:39:06;17.60;;;3.58;;
53052;SDS011;38934;52.690;6.184;2023-12-22T04:41:32;17.17;;;3.42;;
53052;SDS011;38934;52.690;6.184;2023-12-22T04:43:58;19.67;;;4.50;;
53052;SDS011;38934;52.690;6.184;2023-12-22T04:46:28;18.88;;;3.80;;
53052;SDS011;38934;52.690;6.184;2023-12-22T04:48:56;19.10;;;4.18;;
53052;SDS011;38934;52.690;6.184;2023-12-22T04:51:22;21.65;;;3.55;;
53052;SDS011;38934;52.690;6.184;2023-12-22T04:53:48;14.43;;;2.88;;
53052;SDS011;38934;52.690;6.184;2023-12-22T04:56:13;13.00;;;3.00;;
53052;SDS011;38934;52.690;6.184;2023-12-22T04:58:39;16.40;;;3.92;;
53052;SDS011;38934;52.690;6.184;2023-12-22T05:01:04;17.83;;;3.05;;
53052;SDS011;38934;52.690;6.184;2023-12-22T05:03:30;13.80;;;2.80;;
53052;SDS011;38934;52.690;6.184;2023-12-22T05:05:56;13.15;;;3.10;;
53052;SDS011;38934;52.690;6.184;2023-12-22T05:08:21;12.05;;;3.25;;
53052;SDS011;38934;52.690;6.184;2023-12-22T05:10:47;16.95;;;4.40;;
53052;SDS011;38934;52.690;6.184;2023-12-22T05:13:12;22.65;;;4.25;;
53052;SDS011;38934;52.690;6.184;2023-12-22T05:15:38;22.00;;;4.88;;
53052;SDS011;38934;52.690;6.184;2023-12-22T05:18:04;14.45;;;3.85;;
53052;SDS011;38934;52.690;6.184;2023-12-22T05:20:29;15.13;;;3.55;;
53052;SDS011;38934;52.690;6.184;2023-12-22T05:22:55;18.90;;;4.43;;
53052;SDS011;38934;52.690;6.184;2023-12-22T05:25:20;12.57;;;3.78;;
53052;SDS011;38934;52.690;6.184;2023-12-22T05:27:46;16.30;;;3.40;;
53052;SDS011;38934;52.690;6.184;2023-12-22T05:30:12;22.65;;;4.00;;
53052;SDS011;38934;52.690;6.184;2023-12-22T05:32:38;19.85;;;3.42;;
53052;SDS011;38934;52.690;6.184;2023-12-22T05:35:04;24.80;;;4.35;;
53052;SDS011;38934;52.690;6.184;2023-12-22T05:37:30;14.85;;;3.63;;
53052;SDS011;38934;52.690;6.184;2023-12-22T05:39:56;21.95;;;4.07;;
53052;SDS011;38934;52.690;6.184;2023-12-22T05:42:21;16.95;;;3.85;;
53052;SDS011;38934;52.690;6.184;2023-12-22T05:44:47;17.08;;;3.35;;
53052;SDS011;38934;52.690;6.184;2023-12-22T05:47:15;18.77;;;3.20;;
53052;SDS011;38934;52.690;6.184;2023-12-22T05:49:41;16.73;;;4.22;;
53052;SDS011;38934;52.690;6.184;2023-12-22T05:52:07;20.05;;;3.72;;
53052;SDS011;38934;52.690;6.184;2023-12-22T05:54:34;16.10;;;3.83;;
53052;SDS011;38934;52.690;6.184;2023-12-22T05:57:00;15.20;;;3.40;;
53052;SDS011;38934;52.690;6.184;2023-12-22T05:59:26;19.63;;;3.58;;
53052;SDS011;38934;52.690;6.184;2023-12-22T06:01:55;19.48;;;3.70;;
53052;SDS011;38934;52.690;6.184;2023-12-22T06:04:21;16.35;;;3.65;;
53052;SDS011;38934;52.690;6.184;2023-12-22T06:06:47;20.08;;;3.70;;
53052;SDS011;38934;52.690;6.184;2023-12-22T06:09:12;19.77;;;4.07;;
53052;SDS011;38934;52.690;6.184;2023-12-22T06:11:38;13.90;;;3.63;;
53052;SDS011;38934;52.690;6.184;2023-12-22T06:14:05;21.88;;;4.10;;
53052;SDS011;38934;52.690;6.184;2023-12-22T06:16:31;21.88;;;4.50;;
53052;SDS011;38934;52.690;6.184;2023-12-22T06:18:56;22.90;;;5.55;;
53052;SDS011;38934;52.690;6.184;2023-12-22T06:21:22;29.50;;;6.30;;
53052;SDS011;38934;52.690;6.184;2023-12-22T06:23:48;23.00;;;5.95;;
53052;SDS011;38934;52.690;6.184;2023-12-22T06:26:13;28.90;;;6.47;;
53052;SDS011;38934;52.690;6.184;2023-12-22T06:28:39;17.10;;;4.22;;
53052;SDS011;38934;52.690;6.184;2023-12-22T06:31:06;28.77;;;5.32;;
53052;SDS011;38934;52.690;6.184;2023-12-22T06:33:32;20.38;;;3.95;;
53052;SDS011;38934;52.690;6.184;2023-12-22T06:35:57;25.02;;;4.45;;
53052;SDS011;38934;52.690;6.184;2023-12-22T06:38:23;21.30;;;4.38;;
53052;SDS011;38934;52.690;6.184;2023-12-22T06:40:49;22.90;;;4.72;;
53052;SDS011;38934;52.690;6.184;2023-12-22T06:43:15;26.05;;;5.40;;
53052;SDS011;38934;52.690;6.184;2023-12-22T06:45:41;20.13;;;4.10;;
53052;SDS011;38934;52.690;6.184;2023-12-22T06:48:07;19.30;;;3.55;;
53052;SDS011;38934;52.690;6.184;2023-12-22T06:50:34;17.55;;;3.35;;
53052;SDS011;38934;52.690;6.184;2023-12-22T06:53:02;14.15;;;3.63;;
53052;SDS011;38934;52.690;6.184;2023-12-22T06:55:27;29.60;;;6.47;;
53052;SDS011;38934;52.690;6.184;2023-12-22T06:57:54;32.97;;;6.55;;
53052;SDS011;38934;52.690;6.184;2023-12-22T07:00:20;31.13;;;6.18;;
53052;SDS011;38934;52.690;6.184;2023-12-22T07:02:46;21.17;;;4.63;;
53052;SDS011;38934;52.690;6.184;2023-12-22T07:07:47;20.13;;;4.15;;
53052;SDS011;38934;52.690;6.184;2023-12-22T07:10:13;19.52;;;3.67;;
53052;SDS011;38934;52.690;6.184;2023-12-22T07:12:38;22.85;;;3.40;;
53052;SDS011;38934;52.690;6.184;2023-12-22T07:15:04;17.33;;;2.95;;
53052;SDS011;38934;52.690;6.184;2023-12-22T07:17:32;13.48;;;3.13;;
53052;SDS011;38934;52.690;6.184;2023-12-22T07:19:58;16.40;;;2.75;;
53052;SDS011;38934;52.690;6.184;2023-12-22T07:22:23;13.32;;;2.70;;
53052;SDS011;38934;52.690;6.184;2023-12-22T07:24:49;15.98;;;3.90;;
53052;SDS011;38934;52.690;6.184;2023-12-22T07:27:16;19.92;;;3.00;;
53052;SDS011;38934;52.690;6.184;2023-12-22T07:29:42;18.30;;;3.63;;
53052;SDS011;38934;52.690;6.184;2023-12-22T07:32:08;18.60;;;3.58;;
53052;SDS011;38934;52.690;6.184;2023-12-22T07:34:33;19.02;;;3.53;;
53052;SDS011;38934;52.690;6.184;2023-12-22T07:36:59;12.50;;;2.90;;
53052;SDS011;38934;52.690;6.184;2023-12-22T07:39:25;13.57;;;3.05;;
53052;SDS011;38934;52.690;6.184;2023-12-22T07:41:50;16.60;;;3.28;;
53052;SDS011;38934;52.690;6.184;2023-12-22T07:44:16;19.15;;;3.85;;
53052;SDS011;38934;52.690;6.184;2023-12-22T07:46:41;16.25;;;3.40;;
53052;SDS011;38934;52.690;6.184;2023-12-22T07:49:07;12.45;;;3.67;;
53052;SDS011;38934;52.690;6.184;2023-12-22T07:51:33;17.23;;;3.28;;
53052;SDS011;38934;52.690;6.184;2023-12-22T07:53:58;18.70;;;3.40;;
53052;SDS011;38934;52.690;6.184;2023-12-22T07:56:24;18.27;;;2.97;;
53052;SDS011;38934;52.690;6.184;2023-12-22T07:58:50;16.42;;;3.92;;
53052;SDS011;38934;52.690;6.184;2023-12-22T08:01:15;17.48;;;3.30;;
53052;SDS011;38934;52.690;6.184;2023-12-22T08:03:41;20.95;;;3.33;;
53052;SDS011;38934;52.690;6.184;2023-12-22T08:06:06;21.50;;;3.70;;
53052;SDS011;38934;52.690;6.184;2023-12-22T08:08:33;23.58;;;5.15;;
53052;SDS011;38934;52.690;6.184;2023-12-22T08:10:59;17.50;;;3.88;;
53052;SDS011;38934;52.690;6.184;2023-12-22T08:13:25;23.85;;;6.20;;
53052;SDS011;38934;52.690;6.184;2023-12-22T08:15:51;24.88;;;4.85;;
53052;SDS011;38934;52.690;6.184;2023-12-22T08:18:16;21.80;;;6.10;;
53052;SDS011;38934;52.690;6.184;2023-12-22T08:20:42;25.98;;;5.18;;
53052;SDS011;38934;52.690;6.184;2023-12-22T08:23:08;18.02;;;4.68;;
53052;SDS011;38934;52.690;6.184;2023-12-22T08:25:33;15.30;;;3.72;;
53052;SDS011;38934;52.690;6.184;2023-12-22T08:27:59;24.70;;;6.53;;
53052;SDS011;38934;52.690;6.184;2023-12-22T08:30:26;15.52;;;3.90;;
53052;SDS011;38934;52.690;6.184;2023-12-22T08:32:51;19.67;;;3.47;;
53052;SDS011;38934;52.690;6.184;2023-12-22T08:35:18;15.65;;;2.80;;
53052;SDS011;38934;52.690;6.184;2023-12-22T08:37:44;13.27;;;2.97;;
53052;SDS011;38934;52.690;6.184;2023-12-22T08:40:10;10.50;;;2.67;;
53052;SDS011;38934;52.690;6.184;2023-12-22T08:42:35;14.95;;;2.90;;
53052;SDS011;38934;52.690;6.184;2023-12-22T08:45:01;14.02;;;2.80;;
53052;SDS011;38934;52.690;6.184;2023-12-22T08:47:27;17.60;;;4.45;;
53052;SDS011;38934;52.690;6.184;2023-12-22T08:49:53;17.67;;;4.30;;
53052;SDS011;38934;52.690;6.184;2023-12-22T08:52:19;27.65;;;5.80;;
53052;SDS011;38934;52.690;6.184;2023-12-22T08:54:44;31.17;;;6.28;;
53052;SDS011;38934;52.690;6.184;2023-12-22T08:57:10;26.15;;;7.13;;
53052;SDS011;38934;52.690;6.184;2023-12-22T08:59:35;28.90;;;5.80;;
53052;SDS011;38934;52.690;6.184;2023-12-22T09:02:01;32.22;;;7.35;;
53052;SDS011;38934;52.690;6.184;2023-12-22T09:04:27;34.95;;;7.10;;
53052;SDS011;38934;52.690;6.184;2023-12-22T09:06:52;26.00;;;5.00;;
53052;SDS011;38934;52.690;6.184;2023-12-22T09:09:18;28.58;;;5.75;;
53052;SDS011;38934;52.690;6.184;2023-12-22T09:11:43;23.98;;;4.90;;
53052;SDS011;38934;52.690;6.184;2023-12-22T09:14:09;28.70;;;4.40;;
53052;SDS011;38934;52.690;6.184;2023-12-22T09:16:35;43.55;;;8.05;;
53052;SDS011;38934;52.690;6.184;2023-12-22T09:19:02;35.92;;;8.23;;
53052;SDS011;38934;52.690;6.184;2023-12-22T09:21:28;18.00;;;5.15;;
53052;SDS011;38934;52.690;6.184;2023-12-22T09:23:54;12.18;;;3.00;;
53052;SDS011;38934;52.690;6.184;2023-12-22T09:26:19;14.38;;;2.70;;
53052;SDS011;38934;52.690;6.184;2023-12-22T09:28:45;11.73;;;3.10;;
53052;SDS011;38934;52.690;6.184;2023-12-22T09:31:11;17.02;;;3.40;;
53052;SDS011;38934;52.690;6.184;2023-12-22T09:33:40;15.02;;;3.15;;
53052;SDS011;38934;52.690;6.184;2023-12-22T09:36:07;20.77;;;2.95;;
53052;SDS011;38934;52.690;6.184;2023-12-22T09:38:33;15.30;;;2.83;;
53052;SDS011;38934;52.690;6.184;2023-12-22T09:40:59;14.20;;;2.42;;
53052;SDS011;38934;52.690;6.184;2023-12-22T09:43:26;10.65;;;2.80;;
53052;SDS011;38934;52.690;6.184;2023-12-22T09:45:52;14.05;;;3.78;;
53052;SDS011;38934;52.690;6.184;2023-12-22T09:48:18;12.18;;;2.95;;
53052;SDS011;38934;52.690;6.184;2023-12-22T09:50:51;12.43;;;2.17;;
53052;SDS011;38934;52.690;6.184;2023-12-22T09:53:18;10.52;;;2.40;;
53052;SDS011;38934;52.690;6.184;2023-12-22T09:55:45;7.47;;;1.60;;
53052;SDS011;38934;52.690;6.184;2023-12-22T09:58:12;5.32;;;1.42;;
53052;SDS011;38934;52.690;6.184;2023-12-22T10:00:42;6.30;;;1.77;;
53052;SDS011;38934;52.690;6.184;2023-12-22T10:03:09;6.38;;;1.70;;
53052;SDS011;38934;52.690;6.184;2023-12-22T10:05:36;4.75;;;1.80;;
53052;SDS011;38934;52.690;6.184;2023-12-22T10:08:02;7.65;;;2.00;;
53052;SDS011;38934;52.690;6.184;2023-12-22T10:10:30;4.07;;;1.90;;
53052;SDS011;38934;52.690;6.184;2023-12-22T10:12:58;8.85;;;2.00;;
53052;SDS011;38934;52.690;6.184;2023-12-22T10:15:24;11.23;;;2.70;;
53052;SDS011;38934;52.690;6.184;2023-12-22T10:17:52;6.20;;;1.95;;
53052;SDS011;38934;52.690;6.184;2023-12-22T10:20:18;13.35;;;4.03;;
53052;SDS011;38934;52.690;6.184;2023-12-22T10:22:44;6.90;;;2.25;;
53052;SDS011;38934;52.690;6.184;2023-12-22T10:25:09;7.03;;;2.35;;
53052;SDS011;38934;52.690;6.184;2023-12-22T10:27:36;4.68;;;1.73;;
53052;SDS011;38934;52.690;6.184;2023-12-22T10:30:02;4.68;;;1.38;;
53052;SDS011;38934;52.690;6.184;2023-12-22T10:32:28;2.83;;;1.70;;
53052;SDS011;38934;52.690;6.184;2023-12-22T10:34:55;7.70;;;1.50;;
53052;SDS011;38934;52.690;6.184;2023-12-22T10:37:22;5.22;;;1.42;;
53052;SDS011;38934;52.690;6.184;2023-12-22T10:39:51;6.53;;;1.70;;
53052;SDS011;38934;52.690;6.184;2023-12-22T10:42:18;3.28;;;1.02;;
53052;SDS011;38934;52.690;6.184;2023-12-22T10:44:43;4.10;;;1.13;;
53052;SDS011;38934;52.690;6.184;2023-12-22T10:47:09;5.40;;;1.40;;
53052;SDS011;38934;52.690;6.184;2023-12-22T10:49:35;5.82;;;1.33;;
53052;SDS011;38934;52.690;6.184;2023-12-22T10:52:01;3.47;;;0.98;;
53052;SDS011;38934;52.690;6.184;2023-12-22T10:54:27;2.33;;;1.05;;
53052;SDS011;38934;52.690;6.184;2023-12-22T10:56:58;4.93;;;1.20;;
53052;SDS011;38934;52.690;6.184;2023-12-22T10:59:28;3.90;;;1.33;;
53052;SDS011;38934;52.690;6.184;2023-12-22T11:01:56;2.50;;;1.20;;
53052;SDS011;38934;52.690;6.184;2023-12-22T11:04:22;4.32;;;1.30;;
53052;SDS011;38934;52.690;6.184;2023-12-22T11:06:54;2.03;;;1.00;;
53052;SDS011;38934;52.690;6.184;2023-12-22T11:09:23;3.55;;;1.23;;
53052;SDS011;38934;52.690;6.184;2023-12-22T11:11:50;4.88;;;1.10;;
53052;SDS011;38934;52.690;6.184;2023-12-22T11:14:16;3.85;;;1.45;;
53052;SDS011;38934;52.690;6.184;2023-12-22T11:16:42;1.90;;;1.20;;
53052;SDS011;38934;52.690;6.184;2023-12-22T11:19:12;6.78;;;1.90;;
53052;SDS011;38934;52.690;6.184;2023-12-22T11:21:39;3.65;;;1.40;;
53052;SDS011;38934;52.690;6.184;2023-12-22T11:24:05;4.20;;;1.25;;
53052;SDS011;38934;52.690;6.184;2023-12-22T11:26:32;7.80;;;2.63;;
53052;SDS011;38934;52.690;6.184;2023-12-22T11:28:58;8.80;;;2.17;;
53052;SDS011;38934;52.690;6.184;2023-12-22T11:31:25;13.77;;;3.63;;
53052;SDS011;38934;52.690;6.184;2023-12-22T11:33:56;16.15;;;4.63;;
53052;SDS011;38934;52.690;6.184;2023-12-22T11:36:24;18.42;;;4.78;;
53052;SDS011;38934;52.690;6.184;2023-12-22T11:38:50;9.23;;;2.40;;
53052;SDS011;38934;52.690;6.184;2023-12-22T11:41:24;3.22;;;1.20;;
53052;SDS011;38934;52.690;6.184;2023-12-22T11:43:53;2.65;;;1.02;;
53052;SDS011;38934;52.690;6.184;2023-12-22T11:46:19;4.15;;;1.15;;
53052;SDS011;38934;52.690;6.184;2023-12-22T11:48:48;2.72;;;1.10;;
53052;SDS011;38934;52.690;6.184;2023-12-22T11:51:16;8.15;;;2.10;;
53052;SDS011;38934;52.690;6.184;2023-12-22T11:53:42;5.75;;;1.50;;
53052;SDS011;38934;52.690;6.184;2023-12-22T11:56:09;5.40;;;1.73;;
53052;SDS011;38934;52.690;6.184;2023-12-22T12:01:07;5.50;;;3.03;;
53052;SDS011;38934;52.690;6.184;2023-12-22T12:03:38;7.20;;;2.20;;
53052;SDS011;38934;52.690;6.184;2023-12-22T12:08:55;3.70;;;1.90;;
53052;SDS011;38934;52.690;6.184;2023-12-22T12:14:34;7.82;;;2.35;;
53052;SDS011;38934;52.690;6.184;2023-12-22T12:17:08;11.93;;;3.47;;
53052;SDS011;38934;52.690;6.184;2023-12-22T12:19:38;4.05;;;1.80;;
53052;SDS011;38934;52.690;6.184;2023-12-22T12:22:06;8.43;;;2.50;;
53052;SDS011;38934;52.690;6.184;2023-12-22T12:24:32;4.65;;;1.55;;
53052;SDS011;38934;52.690;6.184;2023-12-22T12:26:59;10.57;;;2.33;;
53052;SDS011;38934;52.690;6.184;2023-12-22T12:29:24;12.80;;;3.92;;
53052;SDS011;38934;52.690;6.184;2023-12-22T12:31:50;14.23;;;4.00;;
53052;SDS011;38934;52.690;6.184;2023-12-22T12:34:16;6.80;;;2.40;;
53052;SDS011;38934;52.690;6.184;2023-12-22T12:36:45;6.70;;;1.63;;
53052;SDS011;38934;52.690;6.184;2023-12-22T12:39:14;4.68;;;1.10;;
53052;SDS011;38934;52.690;6.184;2023-12-22T12:41:40;5.22;;;1.60;;
53052;SDS011;38934;52.690;6.184;2023-12-22T12:44:08;7.07;;;2.20;;
53052;SDS011;38934;52.690;6.184;2023-12-22T12:46:39;3.70;;;1.60;;
53052;SDS011;38934;52.690;6.184;2023-12-22T12:49:10;5.32;;;1.63;;
53052;SDS011;38934;52.690;6.184;2023-12-22T12:51:44;9.68;;;1.50;;
53052;SDS011;38934;52.690;6.184;2023-12-22T12:54:11;9.52;;;1.38;;
53052;SDS011;38934;52.690;6.184;2023-12-22T12:56:41;6.00;;;1.52;;
53052;SDS011;38934;52.690;6.184;2023-12-22T12:59:12;3.22;;;1.20;;
53052;SDS011;38934;52.690;6.184;2023-12-22T13:01:43;4.65;;;1.30;;
53052;SDS011;38934;52.690;6.184;2023-12-22T13:04:09;4.15;;;1.20;;
53052;SDS011;38934;52.690;6.184;2023-12-22T13:06:50;6.15;;;1.40;;
53052;SDS011;38934;52.690;6.184;2023-12-22T13:09:16;6.93;;;1.50;;
53052;SDS011;38934;52.690;6.184;2023-12-22T13:11:45;7.05;;;1.40;;
53052;SDS011;38934;52.690;6.184;2023-12-22T13:14:23;6.07;;;1.45;;
53052;SDS011;38934;52.690;6.184;2023-12-22T13:16:53;5.35;;;1.60;;
53052;SDS011;38934;52.690;6.184;2023-12-22T13:19:21;6.35;;;1.50;;
53052;SDS011;38934;52.690;6.184;2023-12-22T13:21:48;7.03;;;1.40;;
53052;SDS011;38934;52.690;6.184;2023-12-22T13:24:15;5.10;;;1.40;;
53052;SDS011;38934;52.690;6.184;2023-12-22T13:26:41;8.93;;;2.65;;
53052;SDS011;38934;52.690;6.184;2023-12-22T13:29:08;4.72;;;1.50;;
53052;SDS011;38934;52.690;6.184;2023-12-22T13:31:38;5.30;;;1.40;;
53052;SDS011;38934;52.690;6.184;2023-12-22T13:34:12;4.32;;;1.90;;
53052;SDS011;38934;52.690;6.184;2023-12-22T13:36:38;7.10;;;2.13;;
53052;SDS011;38934;52.690;6.184;2023-12-22T13:39:05;14.50;;;4.25;;
53052;SDS011;38934;52.690;6.184;2023-12-22T13:41:32;10.82;;;3.65;;
53052;SDS011;38934;52.690;6.184;2023-12-22T13:44:10;20.13;;;5.15;;
53052;SDS011;38934;52.690;6.184;2023-12-22T13:46:39;14.23;;;3.25;;
53052;SDS011;38934;52.690;6.184;2023-12-22T13:49:10;18.13;;;3.40;;
53052;SDS011;38934;52.690;6.184;2023-12-22T13:51:42;21.55;;;3.83;;
53052;SDS011;38934;52.690;6.184;2023-12-22T13:54:09;28.88;;;6.35;;
53052;SDS011;38934;52.690;6.184;2023-12-22T13:56:35;18.35;;;3.38;;
53052;SDS011;38934;52.690;6.184;2023-12-22T13:59:02;31.85;;;5.93;;
53052;SDS011;38934;52.690;6.184;2023-12-22T14:01:28;44.63;;;8.00;;
53052;SDS011;38934;52.690;6.184;2023-12-22T14:03:54;27.85;;;4.90;;
53052;SDS011;38934;52.690;6.184;2023-12-22T14:06:22;11.10;;;2.80;;
53052;SDS011;38934;52.690;6.184;2023-12-22T14:08:49;17.90;;;4.68;;
53052;SDS011;38934;52.690;6.184;2023-12-22T14:11:14;9.60;;;2.15;;
53052;SDS011;38934;52.690;6.184;2023-12-22T14:13:40;10.27;;;1.98;;
53052;SDS011;38934;52.690;6.184;2023-12-22T14:16:06;11.90;;;2.92;;
53052;SDS011;38934;52.690;6.184;2023-12-22T14:18:32;8.23;;;1.90;;
53052;SDS011;38934;52.690;6.184;2023-12-22T14:20:58;4.60;;;1.70;;
53052;SDS011;38934;52.690;6.184;2023-12-22T14:23:26;5.63;;;1.35;;
53052;SDS011;38934;52.690;6.184;2023-12-22T14:25:52;5.63;;;1.60;;
53052;SDS011;38934;52.690;6.184;2023-12-22T14:28:18;5.43;;;1.30;;
53052;SDS011;38934;52.690;6.184;2023-12-22T14:30:44;4.80;;;1.30;;
53052;SDS011;38934;52.690;6.184;2023-12-22T14:33:10;4.28;;;1.10;;
53052;SDS011;38934;52.690;6.184;2023-12-22T14:35:35;4.30;;;1.30;;
53052;SDS011;38934;52.690;6.184;2023-12-22T14:38:02;6.65;;;1.35;;
53052;SDS011;38934;52.690;6.184;2023-12-22T14:40:27;3.97;;;1.45;;
53052;SDS011;38934;52.690;6.184;2023-12-22T14:42:53;5.25;;;1.88;;
53052;SDS011;38934;52.690;6.184;2023-12-22T14:45:19;3.38;;;1.30;;
53052;SDS011;38934;52.690;6.184;2023-12-22T14:47:44;4.28;;;1.10;;
53052;SDS011;38934;52.690;6.184;2023-12-22T14:50:10;4.35;;;1.02;;